createdAt,value
2022-11-04T00:00:51.483Z,19.98
2022-11-04T00:03:57.486Z,21.02
2022-11-04T00:07:00.285Z,23.85
2022-11-04T00:10:03.004Z,27.80
2022-11-04T00:13:05.871Z,27.73
2022-11-04T00:16:27.981Z,27.70
2022-11-04T00:19:50.636Z,28.42
2022-11-04T00:23:12.069Z,30.20
2022-11-04T00:26:36.513Z,27.08
2022-11-04T00:29:40.052Z,30.97
2022-11-04T00:33:01.241Z,28.35
2022-11-04T00:36:08.897Z,28.25
2022-11-04T00:39:11.511Z,27.98
2022-11-04T00:42:14.692Z,30.97
2022-11-04T00:45:17.418Z,29.47
2022-11-04T00:48:20.174Z,28.98
2022-11-04T00:51:23.167Z,27.42
2022-11-04T00:54:25.820Z,24.75
2022-11-04T00:57:28.586Z,26.08
2022-11-04T01:00:31.360Z,23.30
2022-11-04T01:03:34.168Z,24.00
2022-11-04T01:06:36.985Z,24.17
2022-11-04T01:09:39.790Z,23.92
2022-11-04T01:12:42.578Z,23.67
2022-11-04T01:15:45.263Z,23.87
2022-11-04T01:18:48.702Z,24.85
2022-11-04T01:21:52.580Z,25.77
2022-11-04T01:24:55.200Z,26.00
2022-11-04T01:27:57.902Z,26.55
2022-11-04T01:31:05.580Z,25.43
2022-11-04T01:34:11.944Z,26.10
2022-11-04T01:37:14.985Z,25.20
2022-11-04T01:40:17.777Z,26.70
2022-11-04T01:43:22.479Z,26.38
2022-11-04T01:46:38.221Z,26.43
2022-11-04T01:49:44.192Z,27.00
2022-11-04T01:52:58.303Z,27.30
2022-11-04T01:56:05.343Z,27.33
2022-11-04T01:59:16.265Z,28.08
2022-11-04T02:02:19.005Z,26.40
2022-11-04T02:05:22.772Z,25.98
2022-11-04T02:08:26.394Z,25.13
2022-11-04T02:11:47.769Z,28.42
2022-11-04T02:14:51.945Z,27.33
2022-11-04T02:18:16.565Z,27.13
2022-11-04T02:21:40.452Z,28.85
2022-11-04T02:24:58.438Z,27.45
2022-11-04T02:28:01.161Z,26.92
2022-11-04T02:31:19.003Z,29.52
2022-11-04T02:34:42.241Z,29.90
2022-11-04T02:41:12.321Z,27.17
2022-11-04T02:44:25.099Z,26.48
2022-11-04T02:47:31.220Z,28.55
2022-11-04T02:50:54.125Z,26.90
2022-11-04T02:54:05.955Z,25.83
2022-11-04T02:57:15.943Z,26.27
2022-11-04T03:00:21.499Z,26.83
2022-11-04T03:03:34.547Z,29.27
2022-11-04T03:06:38.888Z,27.07
2022-11-04T03:09:45.493Z,27.20
2022-11-04T03:12:54.925Z,29.42
2022-11-04T03:16:03.024Z,31.92
2022-11-04T03:19:18.731Z,34.17
2022-11-04T03:22:23.938Z,32.10
2022-11-04T03:25:38.167Z,29.63
2022-11-04T03:28:51.314Z,28.52
2022-11-04T03:32:03.762Z,26.90
2022-11-04T03:35:07.726Z,31.10
2022-11-04T03:38:10.537Z,33.30
2022-11-04T03:41:26.680Z,31.60
2022-11-04T03:44:30.396Z,36.47
2022-11-04T03:47:34.133Z,35.67
2022-11-04T03:50:42.778Z,36.47
2022-11-04T03:53:45.664Z,38.50
2022-11-04T03:57:34.169Z,36.30
2022-11-04T04:00:50.321Z,32.58
2022-11-04T04:04:02.774Z,31.50
2022-11-04T04:07:15.131Z,30.83
2022-11-04T04:10:39.976Z,28.77
2022-11-04T04:13:49.623Z,30.38
2022-11-04T04:16:56.402Z,27.45
2022-11-04T04:20:03.569Z,27.85
2022-11-04T04:23:35.523Z,27.20
2022-11-04T04:26:59.633Z,29.30
2022-11-04T04:30:16.852Z,27.00
2022-11-04T04:33:20.303Z,26.95
2022-11-04T04:36:23.308Z,27.33
2022-11-04T04:39:51.553Z,27.97
2022-11-04T04:43:12.807Z,27.67
2022-11-04T04:46:15.884Z,32.13
2022-11-04T04:49:18.650Z,27.40
2022-11-04T04:52:23.617Z,27.38
2022-11-04T04:55:26.340Z,29.63
2022-11-04T04:58:29.047Z,27.20
2022-11-04T05:01:32.635Z,27.30
2022-11-04T05:04:35.413Z,26.40
2022-11-04T05:07:38.473Z,28.00
2022-11-04T05:10:41.367Z,27.63
2022-11-04T05:13:44.080Z,26.47
2022-11-04T05:16:46.734Z,24.90
2022-11-04T05:19:49.371Z,28.25
2022-11-04T05:22:52.076Z,27.10
2022-11-04T05:25:54.730Z,27.40
2022-11-04T05:28:57.466Z,28.00
2022-11-04T05:32:00.182Z,27.15
2022-11-04T05:35:03.202Z,26.20
2022-11-04T05:38:05.972Z,24.48
2022-11-04T05:41:11.988Z,24.63
2022-11-04T05:44:15.909Z,24.63
2022-11-04T05:47:18.550Z,23.73
2022-11-04T05:50:21.434Z,24.98
2022-11-04T05:53:24.190Z,22.73
2022-11-04T05:56:26.956Z,23.95
2022-11-04T05:59:29.784Z,23.53
2022-11-04T06:02:32.551Z,21.67
2022-11-04T06:05:35.233Z,22.92
2022-11-04T06:08:41.143Z,23.42
2022-11-04T06:11:47.682Z,26.53
2022-11-04T06:14:50.702Z,23.67
2022-11-04T06:17:53.338Z,25.92
2022-11-04T06:21:22.521Z,25.70
2022-11-04T06:24:25.286Z,23.85
2022-11-04T06:27:27.898Z,23.15
2022-11-04T06:30:30.821Z,22.77
2022-11-04T06:33:36.981Z,24.02
2022-11-04T06:36:40.102Z,23.55
2022-11-04T06:39:42.849Z,22.60
2022-11-04T06:42:45.602Z,23.13
2022-11-04T06:45:55.629Z,24.00
2022-11-04T06:48:58.345Z,24.25
2022-11-04T06:52:11.233Z,23.88
2022-11-04T06:55:43.643Z,23.50
2022-11-04T06:58:50.733Z,21.23
2022-11-04T07:01:53.640Z,21.43
2022-11-04T07:08:01.182Z,22.25
2022-11-04T07:11:04.550Z,24.73
2022-11-04T07:14:08.996Z,23.42
2022-11-04T07:17:14.154Z,23.53
2022-11-04T07:20:17.374Z,23.95
2022-11-04T07:23:20.085Z,23.90
2022-11-04T07:26:22.884Z,25.13
2022-11-04T07:29:25.878Z,24.57
2022-11-04T07:32:29.348Z,26.17
2022-11-04T07:35:36.075Z,24.90
2022-11-04T07:38:39.009Z,23.50
2022-11-04T07:42:02.742Z,24.98
2022-11-04T07:45:29.282Z,23.30
2022-11-04T07:48:32.474Z,23.63
2022-11-04T07:51:35.172Z,26.05
2022-11-04T07:54:38.353Z,23.45
2022-11-04T07:57:42.383Z,24.40
2022-11-04T08:00:47.560Z,24.38
2022-11-04T08:03:53.878Z,27.17
2022-11-04T08:06:57.939Z,31.85
2022-11-04T08:10:00.826Z,37.95
2022-11-04T08:13:16.055Z,42.05
2022-11-04T08:17:11.377Z,44.40
2022-11-04T08:20:15.030Z,33.37
2022-11-04T08:23:18.986Z,48.08
2022-11-04T08:26:27.531Z,32.35
2022-11-04T08:29:53.922Z,29.10
2022-11-04T08:33:02.305Z,26.63
2022-11-04T08:36:19.123Z,26.30
2022-11-04T08:39:27.618Z,25.98
2022-11-04T08:42:49.551Z,26.08
2022-11-04T08:45:53.433Z,25.40
2022-11-04T08:48:59.913Z,28.42
2022-11-04T08:52:04.029Z,25.90
2022-11-04T08:55:10.683Z,28.10
2022-11-04T08:58:13.738Z,28.70
2022-11-04T09:01:17.565Z,26.98
2022-11-04T09:04:21.509Z,26.20
2022-11-04T09:07:25.617Z,26.57
2022-11-04T09:10:28.725Z,25.83
2022-11-04T09:13:35.452Z,26.80
2022-11-04T09:16:42.711Z,27.85
2022-11-04T09:19:45.463Z,26.15
2022-11-04T09:22:50.481Z,26.93
2022-11-04T09:25:53.211Z,27.85
2022-11-04T09:28:58.445Z,27.85
2022-11-04T09:32:03.423Z,26.42
2022-11-04T09:35:06.580Z,27.25
2022-11-04T09:38:10.306Z,27.80
2022-11-04T09:41:47.352Z,30.10
2022-11-04T09:48:44.570Z,31.23
2022-11-04T09:51:56.669Z,30.08
2022-11-04T09:55:06.647Z,30.57
2022-11-04T09:58:13.231Z,30.58
2022-11-04T10:01:19.319Z,32.60
2022-11-04T10:04:31.335Z,30.45
2022-11-04T10:07:37.082Z,32.03
2022-11-04T10:10:48.644Z,30.47
2022-11-04T10:14:05.585Z,32.35
2022-11-04T10:17:29.612Z,30.92
2022-11-04T10:20:38.565Z,31.77
2022-11-04T10:23:59.501Z,32.97
2022-11-04T10:27:13.613Z,32.17
2022-11-04T10:30:20.110Z,31.65
2022-11-04T10:33:33.018Z,29.58
2022-11-04T10:36:38.064Z,30.20
2022-11-04T10:39:47.302Z,30.33
2022-11-04T10:42:51.759Z,29.27
2022-11-04T10:46:38.904Z,30.77
2022-11-04T10:50:00.069Z,29.65
2022-11-04T10:53:12.864Z,28.17
2022-11-04T10:56:44.411Z,29.20
2022-11-04T11:00:05.283Z,31.40
2022-11-04T11:03:36.566Z,28.45
2022-11-04T11:06:41.109Z,28.75
2022-11-04T11:10:57.596Z,28.58
2022-11-04T11:14:57.410Z,28.77
2022-11-04T11:19:00.068Z,28.63
2022-11-04T11:23:04.997Z,29.85
2022-11-04T11:27:14.878Z,27.73
2022-11-04T11:31:00.973Z,26.90
2022-11-04T11:35:17.829Z,27.13
2022-11-04T11:39:22.361Z,26.97
2022-11-04T11:43:36.233Z,28.13
2022-11-04T11:47:17.772Z,27.13
2022-11-04T11:51:32.797Z,27.98
2022-11-04T11:55:12.101Z,28.67
2022-11-04T12:11:36.928Z,28.05
2022-11-04T12:14:48.685Z,28.92
2022-11-04T12:17:58.856Z,26.57
2022-11-04T12:22:01.601Z,27.45
2022-11-04T12:25:47.841Z,27.42
2022-11-04T12:30:38.329Z,28.35
2022-11-04T12:34:06.548Z,26.80
2022-11-04T12:37:18.358Z,27.87
2022-11-04T12:40:54.617Z,28.23
2022-11-04T12:44:35.361Z,29.25
2022-11-04T12:47:43.077Z,27.92
2022-11-04T12:50:55.301Z,28.35
2022-11-04T12:54:06.675Z,28.83
2022-11-04T12:57:41.928Z,28.02
2022-11-04T13:00:49.164Z,27.15
2022-11-04T13:04:00.838Z,26.50
2022-11-04T13:07:10.459Z,27.95
2022-11-04T13:10:23.178Z,25.80
2022-11-04T13:13:36.573Z,25.48
2022-11-04T13:16:44.877Z,25.80
2022-11-04T13:19:52.411Z,26.52
2022-11-04T13:23:03.288Z,25.52
2022-11-04T13:26:12.124Z,25.93
2022-11-04T13:29:21.414Z,27.33
2022-11-04T13:32:37.961Z,29.45
2022-11-04T13:36:07.855Z,27.10
2022-11-04T13:39:18.077Z,28.23
2022-11-04T13:43:30.449Z,30.20
2022-11-04T13:46:34.877Z,31.35
2022-11-04T13:49:38.997Z,32.95
2022-11-04T13:52:52.649Z,30.75
2022-11-04T13:56:01.355Z,37.55
2022-11-04T13:59:29.813Z,37.60
2022-11-04T14:02:56.061Z,29.40
2022-11-04T14:06:06.371Z,28.15
2022-11-04T14:09:33.928Z,24.95
2022-11-04T14:12:37.138Z,28.50
2022-11-04T14:16:00.672Z,25.67
2022-11-04T14:19:42.345Z,23.42
2022-11-04T14:22:45.074Z,24.05
2022-11-04T14:26:01.664Z,24.15
2022-11-04T14:29:16.430Z,26.88
2022-11-04T14:32:26.912Z,27.53
2022-11-04T14:35:30.961Z,23.83
2022-11-04T14:38:34.497Z,26.13
2022-11-04T14:41:40.457Z,25.13
2022-11-04T14:44:48.036Z,26.98
2022-11-04T14:48:01.495Z,25.10
2022-11-04T14:51:05.597Z,23.95
2022-11-04T14:54:25.667Z,25.40
2022-11-04T14:57:31.150Z,25.25
2022-11-04T15:00:34.687Z,25.42
2022-11-04T15:04:10.854Z,27.13
2022-11-04T15:07:04.593Z,29.17
2022-11-04T15:10:25.385Z,33.97
2022-11-04T15:13:28.509Z,34.05
2022-11-04T15:16:31.441Z,36.50
2022-11-04T15:19:36.187Z,38.80
2022-11-04T15:22:43.697Z,42.78
2022-11-04T15:25:48.655Z,44.95
2022-11-04T15:28:52.830Z,40.42
2022-11-04T15:32:04.892Z,40.65
2022-11-04T15:35:13.574Z,40.63
2022-11-04T15:38:16.515Z,39.72
2022-11-04T15:41:40.220Z,41.08
2022-11-04T15:44:51.816Z,44.88
2022-11-04T15:48:27.098Z,45.33
2022-11-04T15:51:36.104Z,49.37
2022-11-04T15:54:41.703Z,52.13
2022-11-04T15:57:45.744Z,54.08
2022-11-04T16:00:53.690Z,57.08
2022-11-04T16:04:00.997Z,56.75
2022-11-04T16:07:20.808Z,48.40
2022-11-04T16:10:43.908Z,48.50
2022-11-04T16:13:47.038Z,46.75
2022-11-04T16:16:52.394Z,38.30
2022-11-04T16:20:02.205Z,34.72
2022-11-04T16:23:05.247Z,35.87
2022-11-04T16:26:08.133Z,36.97
2022-11-04T16:29:26.257Z,35.83
2022-11-04T16:32:39.784Z,33.65
2022-11-04T16:35:43.361Z,32.97
2022-11-04T16:38:46.079Z,33.00
2022-11-04T16:41:48.991Z,34.05
2022-11-04T16:44:58.920Z,34.63
2022-11-04T16:48:02.294Z,36.72
2022-11-04T16:51:18.523Z,36.88
2022-11-04T16:54:22.260Z,36.50
2022-11-04T16:57:25.836Z,38.75
2022-11-04T17:00:30.352Z,38.08
2022-11-04T17:03:33.587Z,41.13
2022-11-04T17:06:37.621Z,39.97
2022-11-04T17:09:40.925Z,38.97
2022-11-04T17:12:44.050Z,39.08
2022-11-04T17:15:46.698Z,35.13
2022-11-04T17:18:49.472Z,32.63
2022-11-04T17:21:52.441Z,35.95
2022-11-04T17:24:55.429Z,39.10
2022-11-04T17:27:58.848Z,37.95
2022-11-04T17:31:02.683Z,34.97
2022-11-04T17:34:06.068Z,34.17
2022-11-04T17:37:12.984Z,33.90
2022-11-04T17:40:17.955Z,35.63
2022-11-04T17:43:39.272Z,32.75
2022-11-04T17:46:44.822Z,31.13
2022-11-04T17:49:47.645Z,31.08
2022-11-04T17:52:50.369Z,32.33
2022-11-04T17:55:54.367Z,31.20
2022-11-04T17:59:00.634Z,33.30
2022-11-04T18:02:04.085Z,36.60
2022-11-04T18:05:08.039Z,41.80
2022-11-04T18:08:11.013Z,44.33
2022-11-04T18:11:34.973Z,54.47
2022-11-04T18:14:37.663Z,50.50
2022-11-04T18:17:41.918Z,32.10
2022-11-04T18:20:44.999Z,25.25
2022-11-04T18:23:47.951Z,24.90
2022-11-04T18:26:51.137Z,22.80
2022-11-04T18:29:54.134Z,23.90
2022-11-04T18:32:56.790Z,24.85
2022-11-04T18:36:03.932Z,23.17
2022-11-04T18:39:08.989Z,24.55
2022-11-04T18:42:12.414Z,23.80
2022-11-04T18:45:15.542Z,25.33
2022-11-04T18:48:18.781Z,25.85
2022-11-04T18:51:23.804Z,26.73
2022-11-04T18:54:26.753Z,28.25
2022-11-04T18:57:29.482Z,26.30
2022-11-04T19:00:33.024Z,26.27
2022-11-04T19:03:35.896Z,26.80
2022-11-04T19:06:44.450Z,26.85
2022-11-04T19:09:48.135Z,28.98
2022-11-04T19:13:09.729Z,31.40
2022-11-04T19:16:13.580Z,28.85
2022-11-04T19:19:16.707Z,30.42
2022-11-04T19:22:19.633Z,33.08
2022-11-04T19:25:22.937Z,32.58
2022-11-04T19:28:37.572Z,38.10
2022-11-04T19:31:48.874Z,32.88
2022-11-04T19:34:53.173Z,30.73
2022-11-04T19:37:56.198Z,26.08
2022-11-04T19:41:38.022Z,23.70
2022-11-04T19:44:41.455Z,24.00
2022-11-04T19:47:44.435Z,24.13
2022-11-04T19:50:49.017Z,23.40
2022-11-04T19:53:51.770Z,24.67
2022-11-04T19:56:54.911Z,24.75
2022-11-04T19:59:57.867Z,22.90
2022-11-04T20:03:00.889Z,22.85
2022-11-04T20:06:04.189Z,22.65
2022-11-04T20:09:11.037Z,23.10
2022-11-04T20:12:32.561Z,24.17
2022-11-04T20:15:35.575Z,24.10
2022-11-04T20:18:38.533Z,23.90
2022-11-04T20:21:41.617Z,24.00
2022-11-04T20:24:44.728Z,28.45
2022-11-04T20:27:47.645Z,29.30
2022-11-04T20:30:50.498Z,33.73
2022-11-04T20:33:55.904Z,31.90
2022-11-04T20:37:00.678Z,33.65
2022-11-04T20:40:05.213Z,42.90
2022-11-04T20:43:07.981Z,42.70
2022-11-04T20:46:19.362Z,43.47
2022-11-04T20:49:22.300Z,38.67
2022-11-04T20:52:25.247Z,31.38
2022-11-04T20:55:28.292Z,29.13
2022-11-04T20:58:31.005Z,26.77
2022-11-04T21:01:36.938Z,25.13
2022-11-04T21:04:39.877Z,26.98
2022-11-04T21:07:42.893Z,28.52
2022-11-04T21:10:52.357Z,31.67
2022-11-04T21:13:56.789Z,32.95
2022-11-04T21:16:59.464Z,32.63
2022-11-04T21:20:04.709Z,30.85
2022-11-04T21:23:11.709Z,27.85
2022-11-04T21:26:25.863Z,25.38
2022-11-04T21:29:28.653Z,26.38
2022-11-04T21:32:31.395Z,26.03
2022-11-04T21:35:36.347Z,25.60
2022-11-04T21:38:40.620Z,26.05
2022-11-04T21:41:43.343Z,27.80
2022-11-04T21:44:46.025Z,28.90
2022-11-04T21:47:48.667Z,28.50
2022-11-04T21:50:51.428Z,28.98
2022-11-04T21:53:54.115Z,30.08
2022-11-04T21:56:56.909Z,31.15
2022-11-04T21:59:59.557Z,30.27
2022-11-04T22:03:02.298Z,29.40
2022-11-04T22:06:10.995Z,29.50
2022-11-04T22:09:13.888Z,30.33
2022-11-04T22:12:16.529Z,30.15
2022-11-04T22:15:40.296Z,30.00
2022-11-04T22:18:43.385Z,31.60
2022-11-04T22:21:46.689Z,31.70
2022-11-04T22:25:03.272Z,32.92
2022-11-04T22:28:06.129Z,33.00
2022-11-04T22:31:16.949Z,29.67
2022-11-04T22:34:19.664Z,29.73
2022-11-04T22:37:22.430Z,29.50
2022-11-04T22:40:26.774Z,29.80
2022-11-04T22:43:29.946Z,28.75
2022-11-04T22:46:33.841Z,29.70
2022-11-04T22:49:37.533Z,26.83
2022-11-04T22:52:40.286Z,25.70
2022-11-04T22:55:42.983Z,25.48
2022-11-04T22:58:45.691Z,25.85
2022-11-04T23:01:48.634Z,24.55
2022-11-04T23:04:51.562Z,24.60
2022-11-04T23:07:55.978Z,24.65
2022-11-04T23:11:21.321Z,25.85
2022-11-04T23:14:42.604Z,24.98
2022-11-04T23:18:03.790Z,25.95
2022-11-04T23:21:25.105Z,26.30
2022-11-04T23:24:46.303Z,27.63
2022-11-04T23:28:09.751Z,30.02
2022-11-04T23:31:12.626Z,28.35
2022-11-04T23:34:33.843Z,25.48
2022-11-04T23:37:36.540Z,24.87
2022-11-04T23:40:39.509Z,22.00
2022-11-04T23:43:42.305Z,20.60
2022-11-04T23:47:03.528Z,19.33
2022-11-04T23:50:25.325Z,19.00
2022-11-04T23:53:46.559Z,18.83
2022-11-04T23:57:18.269Z,19.60
